createdAt,value
2019-03-27T00:02:03.623Z,37.07
2019-03-27T00:04:29.715Z,39.67
2019-03-27T00:06:55.894Z,37.53
2019-03-27T00:09:22.099Z,41.23
2019-03-27T00:11:48.155Z,40.47
2019-03-27T00:14:14.211Z,39.80
2019-03-27T00:16:40.264Z,36.77
2019-03-27T00:19:06.344Z,37.10
2019-03-27T00:21:32.409Z,33.27
2019-03-27T00:23:58.455Z,35.83
2019-03-27T00:26:24.515Z,33.20
2019-03-27T00:28:50.735Z,36.07
2019-03-27T00:31:16.839Z,33.43
2019-03-27T00:33:42.983Z,45.37
2019-03-27T00:36:09.051Z,41.77
2019-03-27T00:38:35.212Z,40.20
2019-03-27T00:41:01.309Z,39.57
2019-03-27T00:43:27.359Z,40.80
2019-03-27T00:45:53.429Z,38.27
2019-03-27T00:48:20.665Z,40.10
2019-03-27T00:50:46.814Z,37.90
2019-03-27T00:53:12.998Z,35.00
2019-03-27T00:55:39.186Z,30.27
2019-03-27T00:58:05.264Z,35.03
2019-03-27T01:00:41.074Z,30.80
2019-03-27T01:03:07.146Z,38.00
2019-03-27T01:05:33.207Z,36.73
2019-03-27T01:07:59.259Z,37.30
2019-03-27T01:10:25.315Z,39.63
2019-03-27T01:12:51.418Z,38.40
2019-03-27T01:15:17.475Z,35.00
2019-03-27T01:17:43.649Z,38.13
2019-03-27T01:20:10.124Z,33.13
2019-03-27T01:22:36.187Z,31.70
2019-03-27T01:25:03.455Z,32.53
2019-03-27T01:27:29.523Z,33.10
2019-03-27T01:29:55.576Z,34.47
2019-03-27T01:32:21.639Z,34.37
2019-03-27T01:34:47.703Z,42.37
2019-03-27T01:37:13.776Z,36.10
2019-03-27T01:39:39.843Z,36.50
2019-03-27T01:42:05.903Z,35.77
2019-03-27T01:44:31.987Z,39.23
2019-03-27T01:46:58.040Z,37.50
2019-03-27T01:49:24.103Z,33.83
2019-03-27T01:51:50.171Z,33.87
2019-03-27T01:54:16.224Z,32.33
2019-03-27T01:56:42.335Z,33.23
2019-03-27T01:59:08.420Z,31.50
2019-03-27T02:01:34.471Z,35.00
2019-03-27T02:04:00.531Z,39.00
2019-03-27T02:06:26.599Z,36.40
2019-03-27T02:08:52.663Z,46.87
2019-03-27T02:11:18.711Z,37.30
2019-03-27T02:13:44.795Z,42.33
2019-03-27T02:16:10.836Z,37.17
2019-03-27T02:18:36.887Z,39.37
2019-03-27T02:21:03.038Z,35.93
2019-03-27T02:23:29.087Z,34.60
2019-03-27T02:25:55.210Z,33.23
2019-03-27T02:28:21.368Z,37.27
2019-03-27T02:30:47.463Z,36.03
2019-03-27T02:33:13.604Z,33.97
2019-03-27T02:35:39.656Z,40.77
2019-03-27T02:38:05.712Z,35.80
2019-03-27T02:40:31.865Z,41.77
2019-03-27T02:42:57.920Z,35.90
2019-03-27T02:45:23.972Z,36.20
2019-03-27T02:47:50.057Z,44.67
2019-03-27T02:50:16.103Z,32.40
2019-03-27T02:52:42.157Z,33.27
2019-03-27T02:55:08.520Z,30.07
2019-03-27T02:57:34.583Z,32.27
2019-03-27T03:00:00.676Z,31.00
2019-03-27T03:02:26.823Z,35.00
2019-03-27T03:04:52.883Z,39.63
2019-03-27T03:07:18.944Z,34.37
2019-03-27T03:09:44.990Z,39.00
2019-03-27T03:12:11.056Z,34.93
2019-03-27T03:14:37.222Z,32.57
2019-03-27T03:17:03.373Z,35.03
2019-03-27T03:19:29.525Z,31.97
2019-03-27T03:21:55.595Z,36.07
2019-03-27T03:24:21.779Z,37.27
2019-03-27T03:26:51.021Z,32.97
2019-03-27T03:29:15.835Z,31.67
2019-03-27T03:31:41.994Z,33.47
2019-03-27T03:34:08.192Z,36.70
2019-03-27T03:36:34.338Z,34.27
2019-03-27T03:39:00.488Z,35.83
2019-03-27T03:41:26.562Z,33.93
2019-03-27T03:43:52.616Z,35.67
2019-03-27T03:46:18.703Z,33.27
2019-03-27T03:48:44.840Z,34.37
2019-03-27T03:51:11.613Z,30.47
2019-03-27T03:53:37.864Z,38.57
2019-03-27T03:56:04.423Z,33.53
2019-03-27T03:58:34.404Z,30.90
2019-03-27T04:01:01.275Z,33.07
2019-03-27T04:03:28.551Z,32.30
2019-03-27T04:05:54.608Z,40.23
2019-03-27T04:08:20.735Z,72.33
2019-03-27T04:10:46.792Z,35.33
2019-03-27T04:13:12.868Z,36.07
2019-03-27T04:15:39.128Z,37.10
2019-03-27T04:18:05.321Z,38.63
2019-03-27T04:20:31.362Z,30.50
2019-03-27T04:22:57.411Z,31.30
2019-03-27T04:25:23.572Z,31.07
2019-03-27T04:27:49.632Z,34.47
2019-03-27T04:30:16.097Z,35.20
2019-03-27T04:32:42.157Z,37.07
2019-03-27T04:35:08.216Z,34.80
2019-03-27T04:37:34.259Z,33.67
2019-03-27T04:40:00.404Z,34.67
2019-03-27T04:42:26.619Z,40.70
2019-03-27T04:44:52.663Z,35.27
2019-03-27T04:47:31.486Z,44.67
2019-03-27T04:49:46.751Z,32.63
2019-03-27T04:52:12.860Z,31.63
2019-03-27T04:54:39.007Z,31.37
2019-03-27T04:57:05.067Z,31.47
2019-03-27T04:59:31.143Z,33.97
2019-03-27T05:01:57.198Z,32.73
2019-03-27T05:04:23.751Z,50.73
2019-03-27T05:06:49.804Z,47.57
2019-03-27T05:09:15.852Z,41.37
2019-03-27T05:11:41.919Z,43.60
2019-03-27T05:14:08.012Z,43.47
2019-03-27T05:16:34.075Z,42.23
2019-03-27T05:19:00.147Z,30.50
2019-03-27T05:21:26.204Z,39.07
2019-03-27T05:23:52.361Z,37.47
2019-03-27T05:26:18.426Z,30.20
2019-03-27T05:28:44.487Z,28.57
2019-03-27T05:31:10.552Z,31.70
2019-03-27T05:33:36.987Z,36.17
2019-03-27T05:36:03.084Z,30.67
2019-03-27T05:38:29.144Z,31.33
2019-03-27T05:40:55.204Z,23.50
2019-03-27T05:43:21.275Z,13.27
2019-03-27T05:45:47.453Z,9.37
2019-03-27T05:48:13.538Z,13.47
2019-03-27T05:50:40.084Z,5.90
2019-03-27T05:53:06.136Z,4.67
2019-03-27T05:55:32.567Z,8.93
2019-03-27T05:57:58.613Z,8.67
2019-03-27T06:00:24.668Z,6.33
2019-03-27T06:02:50.732Z,5.87
2019-03-27T06:05:17.163Z,9.40
2019-03-27T06:07:43.247Z,9.87
2019-03-27T06:10:09.591Z,11.33
2019-03-27T06:12:35.664Z,13.10
2019-03-27T06:15:03.220Z,14.80
2019-03-27T06:17:29.375Z,14.13
2019-03-27T06:19:55.615Z,5.43
2019-03-27T06:22:21.677Z,2.47
2019-03-27T06:24:47.884Z,6.93
2019-03-27T06:27:14.376Z,3.83
2019-03-27T06:29:40.556Z,5.77
2019-03-27T06:32:06.606Z,17.93
2019-03-27T06:34:33.050Z,12.20
2019-03-27T06:36:59.104Z,9.13
2019-03-27T06:39:25.557Z,9.87
2019-03-27T06:41:51.722Z,6.37
2019-03-27T06:44:17.768Z,8.07
2019-03-27T06:46:43.839Z,11.83
2019-03-27T06:49:09.891Z,4.07
2019-03-27T06:51:40.363Z,5.57
2019-03-27T06:54:03.916Z,8.23
2019-03-27T06:56:29.971Z,4.67
2019-03-27T06:58:56.411Z,8.07
2019-03-27T07:01:23.151Z,3.77
2019-03-27T07:03:49.736Z,16.27
2019-03-27T07:06:15.795Z,11.07
2019-03-27T07:08:41.860Z,7.90
2019-03-27T07:11:08.025Z,15.13
2019-03-27T07:13:34.465Z,17.40
2019-03-27T07:16:00.912Z,14.18
2019-03-27T07:18:39.471Z,15.27
2019-03-27T07:20:56.092Z,9.93
2019-03-27T07:23:22.655Z,9.40
2019-03-27T07:25:49.334Z,4.20
2019-03-27T07:28:15.385Z,5.87
2019-03-27T07:30:41.816Z,3.93
2019-03-27T07:33:07.879Z,5.17
2019-03-27T07:35:33.951Z,8.60
2019-03-27T07:38:00.119Z,8.77
2019-03-27T07:40:26.171Z,10.83
2019-03-27T07:42:52.233Z,11.20
2019-03-27T07:45:19.215Z,8.57
2019-03-27T07:47:48.057Z,6.77
2019-03-27T07:50:13.615Z,4.90
2019-03-27T07:52:39.678Z,3.73
2019-03-27T07:55:18.661Z,6.77
2019-03-27T07:57:34.004Z,4.53
2019-03-27T08:00:00.444Z,7.15
2019-03-27T08:02:26.512Z,4.93
2019-03-27T08:04:52.619Z,10.93
2019-03-27T08:07:26.602Z,8.67
2019-03-27T08:09:46.820Z,14.63
2019-03-27T08:12:12.928Z,8.43
2019-03-27T08:14:39.014Z,8.73
2019-03-27T08:17:05.487Z,8.67
2019-03-27T08:19:31.636Z,3.70
2019-03-27T08:21:57.706Z,4.00
2019-03-27T08:24:23.823Z,16.25
2019-03-27T08:26:49.897Z,3.30
2019-03-27T08:29:15.983Z,17.53
2019-03-27T08:31:42.163Z,15.13
2019-03-27T08:34:08.221Z,13.47
2019-03-27T08:36:34.307Z,17.83
2019-03-27T08:39:00.478Z,10.37
2019-03-27T08:41:26.545Z,12.43
2019-03-27T08:43:52.614Z,12.20
2019-03-27T08:46:18.696Z,10.57
2019-03-27T08:48:44.872Z,4.43
2019-03-27T08:51:10.951Z,5.70
2019-03-27T08:53:37.003Z,11.20
2019-03-27T08:56:03.055Z,2.83
2019-03-27T08:58:29.122Z,4.90
2019-03-27T09:00:55.281Z,2.03
2019-03-27T09:03:21.431Z,1.73
2019-03-27T09:05:47.802Z,10.43
2019-03-27T09:08:14.276Z,8.97
2019-03-27T09:10:40.698Z,16.03
2019-03-27T09:13:07.148Z,13.57
2019-03-27T09:15:33.632Z,11.60
2019-03-27T09:17:59.711Z,7.53
2019-03-27T09:20:25.766Z,9.10
2019-03-27T09:22:52.223Z,15.40
2019-03-27T09:25:18.275Z,7.87
2019-03-27T09:27:44.325Z,10.83
2019-03-27T09:30:11.289Z,1.40
2019-03-27T09:32:37.431Z,4.37
2019-03-27T09:35:03.821Z,13.80
2019-03-27T09:37:30.348Z,22.50
2019-03-27T09:39:56.803Z,11.03
2019-03-27T09:42:23.237Z,13.27
2019-03-27T09:44:49.680Z,10.33
2019-03-27T09:47:15.744Z,11.87
2019-03-27T09:49:49.397Z,1.73
2019-03-27T09:52:09.895Z,2.47
2019-03-27T09:54:36.328Z,10.87
2019-03-27T09:57:02.763Z,4.23
2019-03-27T09:59:28.887Z,8.13
2019-03-27T10:01:55.391Z,2.70
2019-03-27T10:04:21.505Z,9.35
2019-03-27T10:06:47.604Z,11.00
2019-03-27T10:09:13.720Z,12.03
2019-03-27T10:11:39.860Z,8.47
2019-03-27T10:14:05.922Z,22.87
2019-03-27T10:16:32.352Z,12.00
2019-03-27T10:18:58.783Z,11.97
2019-03-27T10:21:24.855Z,9.80
2019-03-27T10:23:51.126Z,8.13
2019-03-27T10:26:17.281Z,6.10
2019-03-27T10:28:43.360Z,7.07
2019-03-27T10:31:09.424Z,5.57
2019-03-27T10:33:35.484Z,11.10
2019-03-27T10:36:01.959Z,15.47
2019-03-27T10:38:28.035Z,9.07
2019-03-27T10:40:54.088Z,9.00
2019-03-27T10:43:20.243Z,12.00
2019-03-27T10:45:46.701Z,12.83
2019-03-27T10:48:14.081Z,11.07
2019-03-27T10:50:40.572Z,8.23
2019-03-27T10:53:06.629Z,1.93
2019-03-27T10:55:34.478Z,4.63
2019-03-27T10:58:01.135Z,5.43
2019-03-27T11:00:27.186Z,2.57
2019-03-27T11:02:53.262Z,4.90
2019-03-27T11:05:19.403Z,8.93
2019-03-27T11:07:45.844Z,9.47
2019-03-27T11:10:12.607Z,10.07
2019-03-27T11:12:39.150Z,10.63
2019-03-27T11:15:06.172Z,7.07
2019-03-27T11:17:32.225Z,9.43
2019-03-27T11:19:58.288Z,4.03
2019-03-27T11:22:24.352Z,9.27
2019-03-27T11:24:50.433Z,8.23
2019-03-27T11:27:16.932Z,4.33
2019-03-27T11:29:43.434Z,11.50
2019-03-27T11:32:09.576Z,4.90
2019-03-27T11:34:36.081Z,9.15
2019-03-27T11:37:02.511Z,8.63
2019-03-27T11:39:28.941Z,15.77
2019-03-27T11:41:55.399Z,12.37
2019-03-27T11:44:21.556Z,8.50
2019-03-27T11:46:47.621Z,6.93
2019-03-27T11:49:13.680Z,7.03
2019-03-27T11:51:39.887Z,2.13
2019-03-27T11:54:06.342Z,5.17
2019-03-27T11:56:32.803Z,8.00
2019-03-27T11:58:58.860Z,5.03
2019-03-27T12:01:38.372Z,5.73
2019-03-27T12:03:52.886Z,14.60
2019-03-27T12:06:18.980Z,12.47
2019-03-27T12:08:45.027Z,8.30
2019-03-27T12:11:11.496Z,8.03
2019-03-27T12:13:37.931Z,15.13
2019-03-27T12:16:04.091Z,9.40
2019-03-27T12:18:32.009Z,11.77
2019-03-27T12:20:59.766Z,12.88
2019-03-27T12:23:27.112Z,1.67
2019-03-27T12:25:55.259Z,3.53
2019-03-27T12:28:21.295Z,5.97
2019-03-27T12:30:47.381Z,2.43
2019-03-27T12:33:13.656Z,6.17
2019-03-27T12:35:39.707Z,9.33
2019-03-27T12:38:06.138Z,12.50
2019-03-27T12:40:32.899Z,10.57
2019-03-27T12:42:59.399Z,11.97
2019-03-27T12:45:25.851Z,10.03
2019-03-27T12:47:51.913Z,9.53
2019-03-27T12:50:18.420Z,8.57
2019-03-27T12:52:44.474Z,3.07
2019-03-27T12:55:10.621Z,4.97
2019-03-27T12:57:36.679Z,7.13
2019-03-27T13:00:05.847Z,4.80
2019-03-27T13:02:32.287Z,6.93
2019-03-27T13:04:58.822Z,10.67
2019-03-27T13:07:24.981Z,8.87
2019-03-27T13:09:51.415Z,16.55
2019-03-27T13:12:17.487Z,10.60
2019-03-27T13:14:43.919Z,9.03
2019-03-27T13:17:09.972Z,6.90
2019-03-27T13:19:36.036Z,4.80
2019-03-27T13:22:02.119Z,2.50
2019-03-27T13:24:28.648Z,7.13
2019-03-27T13:26:54.698Z,4.87
2019-03-27T13:29:20.764Z,2.90
2019-03-27T13:31:46.824Z,3.63
2019-03-27T13:34:12.915Z,12.33
2019-03-27T13:36:40.964Z,6.97
2019-03-27T13:39:07.462Z,16.55
2019-03-27T13:41:33.595Z,9.73
2019-03-27T13:44:00.027Z,7.77
2019-03-27T13:46:26.079Z,8.27
2019-03-27T13:48:52.151Z,5.57
2019-03-27T13:51:18.203Z,1.23
2019-03-27T13:53:44.634Z,12.33
2019-03-27T13:56:10.687Z,5.13
2019-03-27T13:58:37.115Z,2.47
2019-03-27T14:01:03.566Z,2.57
2019-03-27T14:03:29.624Z,5.83
2019-03-27T14:05:55.775Z,9.37
2019-03-27T14:08:22.027Z,13.73
2019-03-27T14:10:48.271Z,9.17
2019-03-27T14:13:14.323Z,8.27
2019-03-27T14:15:40.388Z,11.47
2019-03-27T14:18:06.867Z,12.00
2019-03-27T14:20:33.299Z,3.83
2019-03-27T14:22:59.419Z,4.10
2019-03-27T14:25:25.490Z,3.30
2019-03-27T14:27:51.543Z,3.20
2019-03-27T14:30:53.220Z,3.20
2019-03-27T14:33:19.654Z,3.53
2019-03-27T14:35:45.699Z,10.70
2019-03-27T14:38:11.750Z,7.83
2019-03-27T14:40:37.811Z,11.30
2019-03-27T14:43:03.976Z,10.87
2019-03-27T14:45:30.433Z,12.00
2019-03-27T14:47:56.579Z,8.77
2019-03-27T14:50:22.660Z,3.67
2019-03-27T14:52:48.819Z,8.83
2019-03-27T14:55:14.871Z,2.47
2019-03-27T14:57:40.935Z,4.20
2019-03-27T15:00:09.031Z,2.97
2019-03-27T15:02:35.207Z,2.93
2019-03-27T15:05:01.287Z,4.40
2019-03-27T15:07:27.792Z,6.97
2019-03-27T15:09:53.884Z,9.27
2019-03-27T15:12:19.933Z,13.17
2019-03-27T15:14:46.368Z,12.50
2019-03-27T15:17:12.816Z,7.80
2019-03-27T15:19:38.899Z,10.53
2019-03-27T15:22:05.000Z,3.93
2019-03-27T15:24:31.451Z,4.35
2019-03-27T15:26:57.500Z,3.97
2019-03-27T15:29:23.935Z,4.13
2019-03-27T15:31:50.364Z,4.70
2019-03-27T15:34:16.901Z,10.57
2019-03-27T15:36:42.999Z,12.80
2019-03-27T15:39:09.164Z,18.90
2019-03-27T15:41:35.236Z,8.83
2019-03-27T15:44:01.293Z,9.23
2019-03-27T15:46:27.880Z,12.47
2019-03-27T15:48:53.966Z,3.83
2019-03-27T15:51:20.154Z,5.43
2019-03-27T15:53:47.399Z,10.10
2019-03-27T15:56:14.230Z,3.47
2019-03-27T15:58:40.429Z,5.97
2019-03-27T16:01:06.806Z,7.40
2019-03-27T16:03:33.291Z,13.65
2019-03-27T16:05:59.701Z,11.60
2019-03-27T16:08:25.909Z,10.48
2019-03-27T16:10:52.462Z,9.47
2019-03-27T16:13:18.905Z,10.90
2019-03-27T16:15:45.435Z,9.43
2019-03-27T16:18:11.496Z,7.87
2019-03-27T16:20:37.547Z,9.97
2019-03-27T16:23:03.760Z,6.03
2019-03-27T16:25:30.247Z,9.03
2019-03-27T16:27:56.302Z,5.50
2019-03-27T16:30:22.355Z,4.73
2019-03-27T16:32:48.435Z,5.23
2019-03-27T16:35:14.920Z,8.97
2019-03-27T16:37:41.003Z,8.27
2019-03-27T16:40:07.563Z,8.10
2019-03-27T16:42:34.005Z,10.37
2019-03-27T16:45:00.093Z,10.57
2019-03-27T16:47:26.371Z,10.10
2019-03-27T16:49:52.519Z,2.43
2019-03-27T16:52:18.947Z,3.80
2019-03-27T16:54:45.584Z,3.73
2019-03-27T16:57:11.670Z,3.40
2019-03-27T16:59:37.728Z,4.17
2019-03-27T17:02:04.403Z,3.27
2019-03-27T17:04:30.847Z,8.58
2019-03-27T17:06:57.274Z,9.37
2019-03-27T17:09:23.337Z,7.87
2019-03-27T17:11:49.382Z,6.90
2019-03-27T17:14:15.452Z,7.03
2019-03-27T17:16:41.515Z,9.07
2019-03-27T17:19:07.999Z,5.10
2019-03-27T17:21:34.060Z,1.97
2019-03-27T17:24:00.495Z,4.53
2019-03-27T17:26:26.576Z,3.70
2019-03-27T17:28:52.631Z,3.70
2019-03-27T17:31:19.087Z,2.67
2019-03-27T17:33:45.172Z,15.67
2019-03-27T17:36:11.219Z,6.37
2019-03-27T17:38:37.276Z,11.87
2019-03-27T17:41:03.338Z,11.07
2019-03-27T17:43:29.767Z,9.53
2019-03-27T17:45:55.847Z,8.93
2019-03-27T17:48:22.011Z,8.07
2019-03-27T17:50:48.439Z,3.73
2019-03-27T17:53:14.515Z,5.20
2019-03-27T17:55:40.943Z,2.77
2019-03-27T17:58:06.991Z,2.13
2019-03-27T18:00:40.243Z,6.30
2019-03-27T18:03:06.939Z,3.87
2019-03-27T18:05:32.997Z,8.20
2019-03-27T18:07:59.075Z,10.13
2019-03-27T18:10:25.132Z,13.33
2019-03-27T18:12:51.191Z,8.50
2019-03-27T18:15:17.246Z,7.67
2019-03-27T18:17:43.304Z,6.77
2019-03-27T18:20:09.758Z,5.17
2019-03-27T18:22:35.841Z,1.47
2019-03-27T18:25:04.103Z,5.10
2019-03-27T18:27:30.183Z,6.73
2019-03-27T18:29:56.340Z,2.43
2019-03-27T18:32:22.419Z,5.20
2019-03-27T18:34:48.860Z,10.47
2019-03-27T18:37:15.309Z,8.27
2019-03-27T18:39:41.387Z,12.00
2019-03-27T18:42:07.812Z,15.60
2019-03-27T18:44:34.249Z,8.50
2019-03-27T18:47:00.406Z,12.20
2019-03-27T18:49:26.559Z,4.47
2019-03-27T18:51:52.607Z,6.10
2019-03-27T18:54:18.688Z,4.97
2019-03-27T18:56:44.767Z,6.17
2019-03-27T18:59:10.844Z,6.83
2019-03-27T19:01:37.294Z,6.20
2019-03-27T19:04:03.734Z,15.70
2019-03-27T19:06:30.165Z,12.23
2019-03-27T19:08:56.631Z,10.57
2019-03-27T19:11:23.051Z,9.47
2019-03-27T19:13:49.587Z,15.77
2019-03-27T19:16:15.675Z,9.00
2019-03-27T19:18:41.824Z,6.97
2019-03-27T19:21:07.912Z,6.43
2019-03-27T19:23:34.047Z,8.60
2019-03-27T19:26:00.593Z,12.93
2019-03-27T19:28:26.664Z,6.67
2019-03-27T19:30:52.863Z,8.23
2019-03-27T19:33:18.947Z,3.87
2019-03-27T19:35:45.409Z,10.03
2019-03-27T19:38:11.543Z,10.90
2019-03-27T19:40:37.996Z,10.03
2019-03-27T19:43:04.063Z,10.87
2019-03-27T19:45:30.691Z,8.90
2019-03-27T19:47:57.161Z,5.00
2019-03-27T19:50:23.207Z,10.37
2019-03-27T19:52:49.645Z,12.03
2019-03-27T19:55:16.079Z,12.27
2019-03-27T19:57:42.151Z,7.30
2019-03-27T20:00:09.794Z,3.57
2019-03-27T20:02:36.220Z,1.30
2019-03-27T20:05:03.777Z,5.27
2019-03-27T20:07:35.977Z,7.90
2019-03-27T20:09:57.811Z,8.77
2019-03-27T20:12:23.883Z,12.13
2019-03-27T20:14:50.378Z,7.70
2019-03-27T20:17:16.877Z,9.40
2019-03-27T20:19:42.972Z,6.53
2019-03-27T20:22:09.434Z,5.93
2019-03-27T20:24:40.860Z,2.15
2019-03-27T20:27:03.892Z,3.87
2019-03-27T20:29:30.067Z,4.17
2019-03-27T20:31:56.120Z,1.27
2019-03-27T20:34:22.555Z,5.30
2019-03-27T20:36:49.099Z,8.23
2019-03-27T20:39:15.526Z,9.53
2019-03-27T20:41:41.631Z,12.03
2019-03-27T20:44:07.695Z,10.47
2019-03-27T20:46:33.803Z,13.47
2019-03-27T20:49:00.248Z,1.43
2019-03-27T20:51:26.314Z,3.67
2019-03-27T20:53:52.607Z,6.93
2019-03-27T20:56:18.663Z,7.80
2019-03-27T20:58:44.767Z,3.50
2019-03-27T21:01:10.935Z,5.67
2019-03-27T21:03:37.370Z,12.93
2019-03-27T21:06:03.794Z,12.27
2019-03-27T21:08:30.323Z,15.80
2019-03-27T21:10:56.760Z,6.67
2019-03-27T21:13:23.194Z,13.13
2019-03-27T21:15:49.648Z,18.43
2019-03-27T21:18:16.090Z,9.83
2019-03-27T21:20:42.142Z,9.40
2019-03-27T21:23:08.200Z,19.80
2019-03-27T21:25:34.252Z,37.17
2019-03-27T21:28:00.322Z,31.87
2019-03-27T21:30:26.512Z,27.33
2019-03-27T21:32:52.692Z,25.93
2019-03-27T21:35:18.760Z,31.27
2019-03-27T21:37:44.948Z,25.50
2019-03-27T21:40:11.715Z,15.77
2019-03-27T21:42:37.891Z,21.30
2019-03-27T21:45:08.444Z,15.23
2019-03-27T21:47:38.027Z,22.57
2019-03-27T21:50:06.124Z,21.23
2019-03-27T21:52:32.360Z,25.63
2019-03-27T21:54:58.537Z,30.10
2019-03-27T21:57:24.625Z,27.80
2019-03-27T21:59:50.881Z,25.10
2019-03-27T22:02:17.124Z,30.17
2019-03-27T22:04:43.179Z,26.93
2019-03-27T22:07:09.270Z,28.30
2019-03-27T22:09:35.378Z,27.37
2019-03-27T22:12:01.494Z,27.43
2019-03-27T22:14:27.964Z,32.93
2019-03-27T22:16:54.126Z,26.10
2019-03-27T22:19:20.212Z,27.60
2019-03-27T22:21:46.407Z,25.30
2019-03-27T22:24:12.612Z,27.30
2019-03-27T22:26:38.903Z,27.27
2019-03-27T22:29:04.989Z,27.47
2019-03-27T22:31:31.058Z,24.90
2019-03-27T22:33:57.147Z,28.43
2019-03-27T22:36:23.339Z,23.57
2019-03-27T22:38:49.424Z,24.57
2019-03-27T22:41:15.571Z,26.27
2019-03-27T22:43:41.660Z,32.70
2019-03-27T22:46:07.823Z,25.00
2019-03-27T22:48:34.095Z,23.83
2019-03-27T22:51:00.231Z,25.77
2019-03-27T22:53:26.796Z,24.73
2019-03-27T22:55:52.872Z,27.07
2019-03-27T22:58:18.935Z,9.20
2019-03-27T23:00:47.324Z,14.50
2019-03-27T23:03:18.637Z,18.30
2019-03-27T23:05:42.548Z,17.93
2019-03-27T23:08:09.186Z,21.80
2019-03-27T23:10:35.335Z,22.47
2019-03-27T23:13:01.501Z,21.97
2019-03-27T23:15:27.923Z,23.50
2019-03-27T23:17:54.002Z,21.70
2019-03-27T23:20:20.202Z,25.87
2019-03-27T23:22:46.403Z,24.57
2019-03-27T23:25:12.769Z,24.00
2019-03-27T23:27:38.826Z,23.30
2019-03-27T23:30:07.079Z,24.83
2019-03-27T23:32:33.137Z,24.10
2019-03-27T23:34:59.608Z,27.03
2019-03-27T23:37:26.133Z,31.20
2019-03-27T23:39:52.235Z,25.10
2019-03-27T23:42:18.384Z,27.83
2019-03-27T23:44:44.478Z,25.27
2019-03-27T23:47:10.528Z,26.25
2019-03-27T23:49:36.613Z,26.83
2019-03-27T23:52:02.920Z,24.83
2019-03-27T23:54:29.168Z,22.50
2019-03-27T23:56:55.235Z,22.87
2019-03-27T23:59:21.283Z,23.70
